Hattiesburg Laurel Regional Airport
KPIB : rendu visible

Aérodrome :











RETROUVEZ-NOUS SUR...

 
LOGIN :

S'inscrire | Disclaimer

   EN    FR    IT 

 









Légende :    VFR   VFR Marginal   IFR   IFR Intensif   IFR Très Intensif
Visi : 
Plafond : 
>= 8 km
>= 3000ft
5 à 8 km
1000 à 3000 ft
1500m à 5 km
500 à 1000 ft
800 à 1500m
200 à 500 ft
< 800m
< 200 ft
Symboles :   Orages  Brouillard  Fortes neiges  Fortes précipitations  Vent > 20 kt






- Altitude de l'aérodrome : 298 ft
- Code IATA : PIB


KPIB - Hattiesburg Laurel Regional

DERNIER METAR :
  • 172356Z AUTO 00000KT 10SM OVC028 15/10 A3032 RMK AO2 SLP268 T01500100 10178 20150 53003

METARs EXPIRÉS :
  • 172256Z AUTO 14004KT 10SM SCT034 OVC060 16/09 A3032 RMK AO2 SLP267 T01610089
  • 172156Z AUTO 14006KT 10SM FEW035 OVC055 17/09 A3031 RMK AO2 SLP263 T01720089

TAF KPIB
Valide du 18 à 00h jusqu'au 19 à 00h UTC


172320Z 1800/1824 14006KT P6SM FEW035 OVC060
FM180300 13008KT P6SM OVC025
FM181000 14008KT P6SM OVC015
FM181300 16010KT P6SM VCSH OVC015



MET'MAP, la Météo Aéronautique d'un coup d'oeil ! - Copyright ORBIFLY Décembre 2007 - Disclaimer

ORBIFLY MET'MAP TEAM :

Programmation & Développement : Alexandra Zaïnal
Sur une idée originale de : Baudouin d'Aumeries
Assistance à la programmation : Marc-Olivier Méhu
Soutien technique & logistique : Manuel Goepfert

Contact : metmap@orbifly.com




SOURCES & CREDITS :

   NOAA       Earth
Advisory